sensor_id;sensor_type;location;lat;lon;timestamp;pressure;altitude;pressure_sealevel;temperature
59339;BMP280;45117;50.960;5.500;2022-12-29T00:01:15;99361.78;;;10.55
59339;BMP280;45117;50.960;5.500;2022-12-29T00:03:45;99355.75;;;10.51
59339;BMP280;45117;50.960;5.500;2022-12-29T00:06:13;99365.31;;;10.52
59339;BMP280;45117;50.960;5.500;2022-12-29T00:08:39;99354.16;;;10.53
59339;BMP280;45117;50.960;5.500;2022-12-29T00:11:06;99357.16;;;10.55
59339;BMP280;45117;50.960;5.500;2022-12-29T00:13:33;99343.00;;;10.55
59339;BMP280;45117;50.960;5.500;2022-12-29T00:16:17;99335.28;;;10.57
59339;BMP280;45117;50.960;5.500;2022-12-29T00:18:44;99342.06;;;10.61
59339;BMP280;45117;50.960;5.500;2022-12-29T00:21:13;99344.28;;;10.63
59339;BMP280;45117;50.960;5.500;2022-12-29T00:23:57;99329.06;;;10.73
59339;BMP280;45117;50.960;5.500;2022-12-29T00:26:47;99346.22;;;10.75
59339;BMP280;45117;50.960;5.500;2022-12-29T00:29:32;99339.56;;;10.80
59339;BMP280;45117;50.960;5.500;2022-12-29T00:32:16;99339.47;;;10.83
59339;BMP280;45117;50.960;5.500;2022-12-29T00:35:00;99347.16;;;10.81
59339;BMP280;45117;50.960;5.500;2022-12-29T00:37:37;99335.03;;;10.89
59339;BMP280;45117;50.960;5.500;2022-12-29T00:40:22;99330.31;;;10.93
59339;BMP280;45117;50.960;5.500;2022-12-29T00:43:05;99341.41;;;10.96
59339;BMP280;45117;50.960;5.500;2022-12-29T00:45:49;99341.81;;;10.94
59339;BMP280;45117;50.960;5.500;2022-12-29T00:48:16;99331.28;;;11.00
59339;BMP280;45117;50.960;5.500;2022-12-29T00:51:04;99327.84;;;10.99
59339;BMP280;45117;50.960;5.500;2022-12-29T00:53:31;99322.38;;;11.03
59339;BMP280;45117;50.960;5.500;2022-12-29T00:55:57;99327.75;;;11.03
59339;BMP280;45117;50.960;5.500;2022-12-29T00:58:26;99329.78;;;11.11
59339;BMP280;45117;50.960;5.500;2022-12-29T01:01:01;99326.75;;;11.09
59339;BMP280;45117;50.960;5.500;2022-12-29T01:03:27;99308.41;;;11.08
59339;BMP280;45117;50.960;5.500;2022-12-29T01:05:54;99320.19;;;11.10
59339;BMP280;45117;50.960;5.500;2022-12-29T01:08:20;99306.47;;;11.08
59339;BMP280;45117;50.960;5.500;2022-12-29T01:10:57;99305.72;;;11.08
59339;BMP280;45117;50.960;5.500;2022-12-29T01:13:23;99316.00;;;11.09
59339;BMP280;45117;50.960;5.500;2022-12-29T01:15:50;99316.13;;;11.06
59339;BMP280;45117;50.960;5.500;2022-12-29T01:18:16;99313.66;;;11.11
59339;BMP280;45117;50.960;5.500;2022-12-29T01:20:43;99314.81;;;11.10
59339;BMP280;45117;50.960;5.500;2022-12-29T01:23:09;99312.75;;;11.14
59339;BMP280;45117;50.960;5.500;2022-12-29T01:25:36;99318.47;;;11.16
59339;BMP280;45117;50.960;5.500;2022-12-29T01:28:03;99315.78;;;11.16
59339;BMP280;45117;50.960;5.500;2022-12-29T01:30:30;99306.03;;;11.10
59339;BMP280;45117;50.960;5.500;2022-12-29T01:32:56;99329.44;;;11.09
59339;BMP280;45117;50.960;5.500;2022-12-29T01:35:23;99313.50;;;11.15
59339;BMP280;45117;50.960;5.500;2022-12-29T01:37:49;99323.50;;;11.14
59339;BMP280;45117;50.960;5.500;2022-12-29T01:40:16;99320.41;;;11.16
59339;BMP280;45117;50.960;5.500;2022-12-29T01:42:43;99308.03;;;11.18
59339;BMP280;45117;50.960;5.500;2022-12-29T01:45:12;99313.50;;;11.15
59339;BMP280;45117;50.960;5.500;2022-12-29T01:47:46;99309.66;;;11.16
59339;BMP280;45117;50.960;5.500;2022-12-29T01:50:17;99305.97;;;11.22
59339;BMP280;45117;50.960;5.500;2022-12-29T01:52:51;99308.66;;;11.22
59339;BMP280;45117;50.960;5.500;2022-12-29T01:55:20;99298.66;;;11.23
59339;BMP280;45117;50.960;5.500;2022-12-29T01:57:49;99310.50;;;11.26
59339;BMP280;45117;50.960;5.500;2022-12-29T02:00:19;99302.00;;;11.27
59339;BMP280;45117;50.960;5.500;2022-12-29T02:02:49;99312.09;;;11.23
59339;BMP280;45117;50.960;5.500;2022-12-29T02:05:22;99286.94;;;11.30
59339;BMP280;45117;50.960;5.500;2022-12-29T02:07:50;99295.47;;;11.28
59339;BMP280;45117;50.960;5.500;2022-12-29T02:10:19;99304.03;;;11.23
59339;BMP280;45117;50.960;5.500;2022-12-29T02:12:46;99296.56;;;11.18
59339;BMP280;45117;50.960;5.500;2022-12-29T02:15:14;99287.56;;;11.12
59339;BMP280;45117;50.960;5.500;2022-12-29T02:17:57;99288.09;;;11.07
59339;BMP280;45117;50.960;5.500;2022-12-29T02:21:03;99282.59;;;11.10
59339;BMP280;45117;50.960;5.500;2022-12-29T02:26:42;99272.75;;;11.07
59339;BMP280;45117;50.960;5.500;2022-12-29T02:29:36;99279.91;;;11.10
59339;BMP280;45117;50.960;5.500;2022-12-29T02:32:11;99271.44;;;11.12
59339;BMP280;45117;50.960;5.500;2022-12-29T02:34:47;99267.69;;;11.09
59339;BMP280;45117;50.960;5.500;2022-12-29T02:37:21;99267.03;;;11.05
59339;BMP280;45117;50.960;5.500;2022-12-29T02:39:53;99257.38;;;11.08
59339;BMP280;45117;50.960;5.500;2022-12-29T02:42:30;99265.09;;;11.06
59339;BMP280;45117;50.960;5.500;2022-12-29T02:45:03;99249.13;;;11.02
59339;BMP280;45117;50.960;5.500;2022-12-29T02:47:36;99247.50;;;11.05
59339;BMP280;45117;50.960;5.500;2022-12-29T02:50:07;99232.13;;;11.05
59339;BMP280;45117;50.960;5.500;2022-12-29T02:52:38;99229.25;;;11.00
59339;BMP280;45117;50.960;5.500;2022-12-29T02:55:06;99238.38;;;11.02
59339;BMP280;45117;50.960;5.500;2022-12-29T02:57:34;99230.53;;;11.08
59339;BMP280;45117;50.960;5.500;2022-12-29T03:00:05;99214.56;;;11.04
59339;BMP280;45117;50.960;5.500;2022-12-29T03:02:56;99225.72;;;11.03
59339;BMP280;45117;50.960;5.500;2022-12-29T03:05:45;99218.84;;;11.02
59339;BMP280;45117;50.960;5.500;2022-12-29T03:08:23;99220.38;;;11.03
59339;BMP280;45117;50.960;5.500;2022-12-29T03:10:58;99225.47;;;11.10
59339;BMP280;45117;50.960;5.500;2022-12-29T03:13:29;99220.84;;;11.10
59339;BMP280;45117;50.960;5.500;2022-12-29T03:16:18;99217.75;;;11.12
59339;BMP280;45117;50.960;5.500;2022-12-29T03:18:56;99213.75;;;11.16
59339;BMP280;45117;50.960;5.500;2022-12-29T03:21:29;99193.44;;;11.15
59339;BMP280;45117;50.960;5.500;2022-12-29T03:24:11;99209.97;;;11.14
59339;BMP280;45117;50.960;5.500;2022-12-29T03:26:37;99204.44;;;11.08
59339;BMP280;45117;50.960;5.500;2022-12-29T03:29:05;99212.16;;;11.06
59339;BMP280;45117;50.960;5.500;2022-12-29T03:31:33;99213.22;;;11.09
59339;BMP280;45117;50.960;5.500;2022-12-29T03:34:03;99211.63;;;11.11
59339;BMP280;45117;50.960;5.500;2022-12-29T03:36:37;99212.38;;;11.12
59339;BMP280;45117;50.960;5.500;2022-12-29T03:39:09;99198.94;;;11.12
59339;BMP280;45117;50.960;5.500;2022-12-29T03:41:39;99203.00;;;11.16
59339;BMP280;45117;50.960;5.500;2022-12-29T03:44:07;99197.63;;;11.16
59339;BMP280;45117;50.960;5.500;2022-12-29T03:46:34;99217.75;;;11.12
59339;BMP280;45117;50.960;5.500;2022-12-29T03:49:01;99205.63;;;11.07
59339;BMP280;45117;50.960;5.500;2022-12-29T03:51:28;99226.31;;;11.19
59339;BMP280;45117;50.960;5.500;2022-12-29T03:53:55;99209.13;;;11.17
59339;BMP280;45117;50.960;5.500;2022-12-29T03:56:21;99239.59;;;11.23
59339;BMP280;45117;50.960;5.500;2022-12-29T03:58:48;99227.69;;;11.24
59339;BMP280;45117;50.960;5.500;2022-12-29T04:01:14;99241.97;;;11.21
59339;BMP280;45117;50.960;5.500;2022-12-29T04:03:41;99228.50;;;11.12
59339;BMP280;45117;50.960;5.500;2022-12-29T04:06:07;99235.22;;;11.16
59339;BMP280;45117;50.960;5.500;2022-12-29T04:08:35;99241.44;;;11.13
59339;BMP280;45117;50.960;5.500;2022-12-29T04:11:02;99221.06;;;11.16
59339;BMP280;45117;50.960;5.500;2022-12-29T04:13:29;99250.16;;;11.17
59339;BMP280;45117;50.960;5.500;2022-12-29T04:15:56;99253.34;;;11.25
59339;BMP280;45117;50.960;5.500;2022-12-29T04:18:22;99279.03;;;11.26
59339;BMP280;45117;50.960;5.500;2022-12-29T04:20:49;99263.28;;;11.15
59339;BMP280;45117;50.960;5.500;2022-12-29T04:23:29;99276.41;;;11.01
59339;BMP280;45117;50.960;5.500;2022-12-29T04:25:57;99280.94;;;10.91
59339;BMP280;45117;50.960;5.500;2022-12-29T04:28:24;99270.41;;;10.84
59339;BMP280;45117;50.960;5.500;2022-12-29T04:30:51;99271.84;;;10.76
59339;BMP280;45117;50.960;5.500;2022-12-29T04:33:17;99287.97;;;10.63
59339;BMP280;45117;50.960;5.500;2022-12-29T04:35:44;99272.06;;;10.56
59339;BMP280;45117;50.960;5.500;2022-12-29T04:38:10;99271.09;;;10.50
59339;BMP280;45117;50.960;5.500;2022-12-29T04:40:38;99274.75;;;10.43
59339;BMP280;45117;50.960;5.500;2022-12-29T04:43:06;99276.69;;;10.43
59339;BMP280;45117;50.960;5.500;2022-12-29T04:45:33;99273.69;;;10.41
59339;BMP280;45117;50.960;5.500;2022-12-29T04:47:59;99280.34;;;10.36
59339;BMP280;45117;50.960;5.500;2022-12-29T04:50:26;99283.13;;;10.32
59339;BMP280;45117;50.960;5.500;2022-12-29T04:52:52;99280.97;;;10.27
59339;BMP280;45117;50.960;5.500;2022-12-29T04:55:19;99279.13;;;10.24
59339;BMP280;45117;50.960;5.500;2022-12-29T04:57:45;99280.53;;;10.16
59339;BMP280;45117;50.960;5.500;2022-12-29T05:00:14;99273.66;;;10.15
59339;BMP280;45117;50.960;5.500;2022-12-29T05:02:40;99285.13;;;10.16
59339;BMP280;45117;50.960;5.500;2022-12-29T05:05:07;99289.66;;;10.19
59339;BMP280;45117;50.960;5.500;2022-12-29T05:07:34;99291.69;;;10.15
59339;BMP280;45117;50.960;5.500;2022-12-29T05:10:00;99299.91;;;10.07
59339;BMP280;45117;50.960;5.500;2022-12-29T05:12:29;99288.13;;;10.05
59339;BMP280;45117;50.960;5.500;2022-12-29T05:14:56;99300.34;;;10.06
59339;BMP280;45117;50.960;5.500;2022-12-29T05:17:24;99292.75;;;10.17
59339;BMP280;45117;50.960;5.500;2022-12-29T05:19:50;99294.13;;;10.09
59339;BMP280;45117;50.960;5.500;2022-12-29T05:22:17;99280.72;;;10.09
59339;BMP280;45117;50.960;5.500;2022-12-29T05:24:43;99279.13;;;10.12
59339;BMP280;45117;50.960;5.500;2022-12-29T05:27:10;99285.81;;;10.20
59339;BMP280;45117;50.960;5.500;2022-12-29T05:29:36;99289.53;;;10.22
59339;BMP280;45117;50.960;5.500;2022-12-29T05:32:03;99294.59;;;10.20
59339;BMP280;45117;50.960;5.500;2022-12-29T05:34:31;99287.72;;;10.19
59339;BMP280;45117;50.960;5.500;2022-12-29T05:36:58;99305.13;;;10.27
59339;BMP280;45117;50.960;5.500;2022-12-29T05:39:24;99295.13;;;10.28
59339;BMP280;45117;50.960;5.500;2022-12-29T05:41:51;99294.16;;;10.34
59339;BMP280;45117;50.960;5.500;2022-12-29T05:44:17;99298.69;;;10.38
59339;BMP280;45117;50.960;5.500;2022-12-29T05:46:43;99292.47;;;10.41
59339;BMP280;45117;50.960;5.500;2022-12-29T05:49:10;99304.91;;;10.47
59339;BMP280;45117;50.960;5.500;2022-12-29T05:51:38;99303.59;;;10.52
59339;BMP280;45117;50.960;5.500;2022-12-29T05:54:04;99316.38;;;10.48
59339;BMP280;45117;50.960;5.500;2022-12-29T05:56:31;99306.28;;;10.52
59339;BMP280;45117;50.960;5.500;2022-12-29T05:58:57;99301.69;;;10.52
59339;BMP280;45117;50.960;5.500;2022-12-29T06:01:24;99302.97;;;10.48
59339;BMP280;45117;50.960;5.500;2022-12-29T06:03:50;99306.19;;;10.43
59339;BMP280;45117;50.960;5.500;2022-12-29T06:06:17;99318.31;;;10.47
59339;BMP280;45117;50.960;5.500;2022-12-29T06:08:45;99312.53;;;10.49
59339;BMP280;45117;50.960;5.500;2022-12-29T06:11:11;99306.28;;;10.52
59339;BMP280;45117;50.960;5.500;2022-12-29T06:13:38;99307.16;;;10.49
59339;BMP280;45117;50.960;5.500;2022-12-29T06:16:05;99313.38;;;10.46
59339;BMP280;45117;50.960;5.500;2022-12-29T06:18:32;99320.34;;;10.43
59339;BMP280;45117;50.960;5.500;2022-12-29T06:20:59;99324.31;;;10.39
59339;BMP280;45117;50.960;5.500;2022-12-29T06:23:27;99328.94;;;10.38
59339;BMP280;45117;50.960;5.500;2022-12-29T06:25:55;99321.22;;;10.40
59339;BMP280;45117;50.960;5.500;2022-12-29T06:28:22;99324.63;;;10.41
59339;BMP280;45117;50.960;5.500;2022-12-29T06:30:49;99324.75;;;10.37
59339;BMP280;45117;50.960;5.500;2022-12-29T06:33:15;99328.28;;;10.34
59339;BMP280;45117;50.960;5.500;2022-12-29T06:35:42;99340.63;;;10.31
59339;BMP280;45117;50.960;5.500;2022-12-29T06:38:09;99352.19;;;10.28
59339;BMP280;45117;50.960;5.500;2022-12-29T06:40:35;99352.53;;;10.30
59339;BMP280;45117;50.960;5.500;2022-12-29T06:43:03;99329.88;;;10.31
59339;BMP280;45117;50.960;5.500;2022-12-29T06:45:29;99345.97;;;10.31
59339;BMP280;45117;50.960;5.500;2022-12-29T06:47:56;99349.31;;;10.35
59339;BMP280;45117;50.960;5.500;2022-12-29T06:50:22;99348.09;;;10.24
59339;BMP280;45117;50.960;5.500;2022-12-29T06:52:49;99358.88;;;10.36
59339;BMP280;45117;50.960;5.500;2022-12-29T06:55:16;99358.31;;;10.29
59339;BMP280;45117;50.960;5.500;2022-12-29T06:57:42;99360.25;;;10.28
59339;BMP280;45117;50.960;5.500;2022-12-29T07:00:11;99362.25;;;10.24
59339;BMP280;45117;50.960;5.500;2022-12-29T07:02:38;99377.38;;;10.18
59339;BMP280;45117;50.960;5.500;2022-12-29T07:05:04;99390.78;;;10.18
59339;BMP280;45117;50.960;5.500;2022-12-29T07:07:32;99388.31;;;10.24
59339;BMP280;45117;50.960;5.500;2022-12-29T07:09:59;99387.16;;;10.25
59339;BMP280;45117;50.960;5.500;2022-12-29T07:12:25;99384.28;;;10.32
59339;BMP280;45117;50.960;5.500;2022-12-29T07:14:51;99382.13;;;10.27
59339;BMP280;45117;50.960;5.500;2022-12-29T07:17:19;99383.94;;;10.30
59339;BMP280;45117;50.960;5.500;2022-12-29T07:19:46;99395.44;;;10.30
59339;BMP280;45117;50.960;5.500;2022-12-29T07:22:12;99386.31;;;10.41
59339;BMP280;45117;50.960;5.500;2022-12-29T07:24:39;99396.94;;;10.31
59339;BMP280;45117;50.960;5.500;2022-12-29T07:27:05;99390.56;;;10.25
59339;BMP280;45117;50.960;5.500;2022-12-29T07:29:32;99384.56;;;10.21
59339;BMP280;45117;50.960;5.500;2022-12-29T07:31:58;99392.31;;;10.32
59339;BMP280;45117;50.960;5.500;2022-12-29T07:34:26;99409.16;;;10.32
59339;BMP280;45117;50.960;5.500;2022-12-29T07:36:52;99413.44;;;10.30
59339;BMP280;45117;50.960;5.500;2022-12-29T07:39:19;99421.72;;;10.23
59339;BMP280;45117;50.960;5.500;2022-12-29T07:41:45;99420.03;;;10.13
59339;BMP280;45117;50.960;5.500;2022-12-29T07:44:12;99432.56;;;10.03
59339;BMP280;45117;50.960;5.500;2022-12-29T07:46:38;99420.41;;;9.98
59339;BMP280;45117;50.960;5.500;2022-12-29T07:49:05;99424.03;;;9.92
59339;BMP280;45117;50.960;5.500;2022-12-29T07:51:33;99431.31;;;9.91
59339;BMP280;45117;50.960;5.500;2022-12-29T07:53:59;99437.03;;;9.93
59339;BMP280;45117;50.960;5.500;2022-12-29T07:56:26;99441.59;;;9.93
59339;BMP280;45117;50.960;5.500;2022-12-29T07:58:53;99432.63;;;9.99
59339;BMP280;45117;50.960;5.500;2022-12-29T08:01:19;99434.56;;;9.99
59339;BMP280;45117;50.960;5.500;2022-12-29T08:03:46;99442.59;;;9.99
59339;BMP280;45117;50.960;5.500;2022-12-29T08:06:13;99445.59;;;10.01
59339;BMP280;45117;50.960;5.500;2022-12-29T08:08:40;99447.97;;;9.99
59339;BMP280;45117;50.960;5.500;2022-12-29T08:11:07;99441.59;;;9.93
59339;BMP280;45117;50.960;5.500;2022-12-29T08:13:33;99450.81;;;9.92
59339;BMP280;45117;50.960;5.500;2022-12-29T08:16:00;99452.09;;;9.87
59339;BMP280;45117;50.960;5.500;2022-12-29T08:18:26;99456.34;;;9.85
59339;BMP280;45117;50.960;5.500;2022-12-29T08:20:53;99465.72;;;9.93
59339;BMP280;45117;50.960;5.500;2022-12-29T08:23:19;99459.38;;;10.03
59339;BMP280;45117;50.960;5.500;2022-12-29T08:25:56;99460.44;;;10.05
59339;BMP280;45117;50.960;5.500;2022-12-29T08:28:23;99464.94;;;10.08
59339;BMP280;45117;50.960;5.500;2022-12-29T08:30:49;99463.16;;;10.18
59339;BMP280;45117;50.960;5.500;2022-12-29T08:33:16;99469.06;;;10.13
59339;BMP280;45117;50.960;5.500;2022-12-29T08:35:42;99465.94;;;10.15
59339;BMP280;45117;50.960;5.500;2022-12-29T08:38:09;99474.47;;;10.26
59339;BMP280;45117;50.960;5.500;2022-12-29T08:40:36;99462.00;;;10.19
59339;BMP280;45117;50.960;5.500;2022-12-29T08:43:04;99475.63;;;10.25
59339;BMP280;45117;50.960;5.500;2022-12-29T08:45:31;99462.91;;;10.29
59339;BMP280;45117;50.960;5.500;2022-12-29T08:47:58;99481.25;;;10.30
59339;BMP280;45117;50.960;5.500;2022-12-29T08:50:24;99480.06;;;10.31
59339;BMP280;45117;50.960;5.500;2022-12-29T08:52:51;99483.06;;;10.33
59339;BMP280;45117;50.960;5.500;2022-12-29T08:55:17;99497.34;;;10.30
59339;BMP280;45117;50.960;5.500;2022-12-29T08:57:44;99484.69;;;10.31
59339;BMP280;45117;50.960;5.500;2022-12-29T09:00:12;99502.38;;;10.28
59339;BMP280;45117;50.960;5.500;2022-12-29T09:02:40;99494.75;;;10.27
59339;BMP280;45117;50.960;5.500;2022-12-29T09:05:07;99482.94;;;10.24
59339;BMP280;45117;50.960;5.500;2022-12-29T09:07:34;99482.59;;;10.22
59339;BMP280;45117;50.960;5.500;2022-12-29T09:10:01;99502.63;;;10.18
59339;BMP280;45117;50.960;5.500;2022-12-29T09:12:27;99501.81;;;10.21
59339;BMP280;45117;50.960;5.500;2022-12-29T09:14:54;99512.44;;;10.24
59339;BMP280;45117;50.960;5.500;2022-12-29T09:17:22;99502.69;;;10.30
59339;BMP280;45117;50.960;5.500;2022-12-29T09:20:07;99509.31;;;10.26
59339;BMP280;45117;50.960;5.500;2022-12-29T09:22:34;99503.72;;;10.20
59339;BMP280;45117;50.960;5.500;2022-12-29T09:25:01;99510.19;;;10.23
59339;BMP280;45117;50.960;5.500;2022-12-29T09:27:27;99494.50;;;10.21
59339;BMP280;45117;50.960;5.500;2022-12-29T09:29:55;99501.47;;;10.19
59339;BMP280;45117;50.960;5.500;2022-12-29T09:32:23;99523.59;;;10.23
59339;BMP280;45117;50.960;5.500;2022-12-29T09:34:49;99512.25;;;10.31
59339;BMP280;45117;50.960;5.500;2022-12-29T09:37:16;99503.56;;;10.27
59339;BMP280;45117;50.960;5.500;2022-12-29T09:39:42;99519.97;;;10.29
59339;BMP280;45117;50.960;5.500;2022-12-29T09:42:13;99507.22;;;10.33
59339;BMP280;45117;50.960;5.500;2022-12-29T09:44:50;99540.69;;;10.29
59339;BMP280;45117;50.960;5.500;2022-12-29T09:47:20;99526.34;;;10.35
59339;BMP280;45117;50.960;5.500;2022-12-29T09:49:53;99546.00;;;10.45
59339;BMP280;45117;50.960;5.500;2022-12-29T09:52:21;99544.72;;;10.50
59339;BMP280;45117;50.960;5.500;2022-12-29T09:54:54;99546.16;;;10.54
59339;BMP280;45117;50.960;5.500;2022-12-29T09:57:24;99534.25;;;10.55
59339;BMP280;45117;50.960;5.500;2022-12-29T09:59:55;99555.78;;;10.52
59339;BMP280;45117;50.960;5.500;2022-12-29T10:02:32;99551.28;;;10.49
59339;BMP280;45117;50.960;5.500;2022-12-29T10:05:02;99568.22;;;10.46
59339;BMP280;45117;50.960;5.500;2022-12-29T10:07:36;99561.25;;;10.48
59339;BMP280;45117;50.960;5.500;2022-12-29T10:10:17;99546.75;;;10.46
59339;BMP280;45117;50.960;5.500;2022-12-29T10:12:54;99565.72;;;10.39
59339;BMP280;45117;50.960;5.500;2022-12-29T10:15:35;99576.69;;;10.44
59339;BMP280;45117;50.960;5.500;2022-12-29T10:18:12;99578.19;;;10.45
59339;BMP280;45117;50.960;5.500;2022-12-29T10:20:48;99581.34;;;10.56
59339;BMP280;45117;50.960;5.500;2022-12-29T10:23:25;99583.28;;;10.56
59339;BMP280;45117;50.960;5.500;2022-12-29T10:25:54;99585.72;;;10.50
59339;BMP280;45117;50.960;5.500;2022-12-29T10:28:23;99592.25;;;10.49
59339;BMP280;45117;50.960;5.500;2022-12-29T10:30:51;99595.19;;;10.55
59339;BMP280;45117;50.960;5.500;2022-12-29T10:33:21;99589.31;;;10.60
59339;BMP280;45117;50.960;5.500;2022-12-29T10:35:50;99600.84;;;10.73
59339;BMP280;45117;50.960;5.500;2022-12-29T10:38:23;99605.28;;;10.80
59339;BMP280;45117;50.960;5.500;2022-12-29T10:40:54;99601.25;;;10.88
59339;BMP280;45117;50.960;5.500;2022-12-29T10:43:25;99613.72;;;10.95
59339;BMP280;45117;50.960;5.500;2022-12-29T10:45:53;99616.81;;;10.93
59339;BMP280;45117;50.960;5.500;2022-12-29T10:48:22;99608.75;;;10.93
59339;BMP280;45117;50.960;5.500;2022-12-29T10:50:55;99616.41;;;10.95
59339;BMP280;45117;50.960;5.500;2022-12-29T10:53:25;99615.00;;;10.90
59339;BMP280;45117;50.960;5.500;2022-12-29T10:55:53;99612.72;;;10.88
59339;BMP280;45117;50.960;5.500;2022-12-29T10:58:21;99612.63;;;10.92
59339;BMP280;45117;50.960;5.500;2022-12-29T11:00:50;99610.50;;;11.00
59339;BMP280;45117;50.960;5.500;2022-12-29T11:03:46;99605.53;;;10.98
59339;BMP280;45117;50.960;5.500;2022-12-29T11:06:20;99607.63;;;11.07
59339;BMP280;45117;50.960;5.500;2022-12-29T11:08:53;99628.28;;;11.22
59339;BMP280;45117;50.960;5.500;2022-12-29T11:11:25;99621.41;;;11.21
59339;BMP280;45117;50.960;5.500;2022-12-29T11:13:57;99629.38;;;11.25
59339;BMP280;45117;50.960;5.500;2022-12-29T11:16:29;99609.53;;;11.48
59339;BMP280;45117;50.960;5.500;2022-12-29T11:18:57;99628.69;;;11.50
59339;BMP280;45117;50.960;5.500;2022-12-29T11:21:30;99647.03;;;11.51
59339;BMP280;45117;50.960;5.500;2022-12-29T11:23:58;99652.53;;;11.48
59339;BMP280;45117;50.960;5.500;2022-12-29T11:26:26;99637.66;;;11.31
59339;BMP280;45117;50.960;5.500;2022-12-29T11:29:21;99654.31;;;11.26
59339;BMP280;45117;50.960;5.500;2022-12-29T11:31:48;99653.22;;;11.23
59339;BMP280;45117;50.960;5.500;2022-12-29T11:34:20;99662.88;;;11.20
59339;BMP280;45117;50.960;5.500;2022-12-29T11:36:49;99663.75;;;11.30
59339;BMP280;45117;50.960;5.500;2022-12-29T11:39:29;99659.38;;;11.24
59339;BMP280;45117;50.960;5.500;2022-12-29T11:41:56;99669.75;;;11.21
59339;BMP280;45117;50.960;5.500;2022-12-29T11:44:24;99655.75;;;11.14
59339;BMP280;45117;50.960;5.500;2022-12-29T11:46:51;99674.56;;;11.14
59339;BMP280;45117;50.960;5.500;2022-12-29T11:49:20;99673.06;;;11.13
59339;BMP280;45117;50.960;5.500;2022-12-29T11:51:50;99676.38;;;11.04
59339;BMP280;45117;50.960;5.500;2022-12-29T11:54:19;99676.44;;;11.01
59339;BMP280;45117;50.960;5.500;2022-12-29T11:56:48;99672.47;;;11.05
59339;BMP280;45117;50.960;5.500;2022-12-29T11:59:37;99674.53;;;11.01
59339;BMP280;45117;50.960;5.500;2022-12-29T12:02:24;99673.13;;;10.97
59339;BMP280;45117;50.960;5.500;2022-12-29T12:04:56;99679.22;;;10.97
59339;BMP280;45117;50.960;5.500;2022-12-29T12:07:36;99674.69;;;10.94
59339;BMP280;45117;50.960;5.500;2022-12-29T12:10:05;99683.53;;;10.95
59339;BMP280;45117;50.960;5.500;2022-12-29T12:12:39;99689.22;;;10.97
59339;BMP280;45117;50.960;5.500;2022-12-29T12:15:14;99698.88;;;10.94
59339;BMP280;45117;50.960;5.500;2022-12-29T12:17:49;99689.66;;;10.95
59339;BMP280;45117;50.960;5.500;2022-12-29T12:20:20;99688.94;;;11.07
59339;BMP280;45117;50.960;5.500;2022-12-29T12:22:58;99682.72;;;11.10
59339;BMP280;45117;50.960;5.500;2022-12-29T12:25:29;99685.66;;;11.16
59339;BMP280;45117;50.960;5.500;2022-12-29T12:28:00;99678.81;;;11.28
59339;BMP280;45117;50.960;5.500;2022-12-29T12:30:29;99676.22;;;11.24
59339;BMP280;45117;50.960;5.500;2022-12-29T12:33:03;99673.53;;;11.24
59339;BMP280;45117;50.960;5.500;2022-12-29T12:35:40;99683.75;;;11.29
59339;BMP280;45117;50.960;5.500;2022-12-29T12:38:18;99688.38;;;11.29
59339;BMP280;45117;50.960;5.500;2022-12-29T12:40:58;99699.53;;;11.27
59339;BMP280;45117;50.960;5.500;2022-12-29T12:43:40;99682.75;;;11.23
59339;BMP280;45117;50.960;5.500;2022-12-29T12:46:37;99687.81;;;11.21
59339;BMP280;45117;50.960;5.500;2022-12-29T12:49:48;99692.41;;;11.20
59339;BMP280;45117;50.960;5.500;2022-12-29T12:52:29;99699.75;;;11.20
59339;BMP280;45117;50.960;5.500;2022-12-29T12:55:10;99687.81;;;11.21
59339;BMP280;45117;50.960;5.500;2022-12-29T12:57:46;99704.03;;;11.17
59339;BMP280;45117;50.960;5.500;2022-12-29T13:00:17;99697.53;;;11.15
59339;BMP280;45117;50.960;5.500;2022-12-29T13:02:55;99705.59;;;11.15
59339;BMP280;45117;50.960;5.500;2022-12-29T13:05:42;99701.88;;;11.12
59339;BMP280;45117;50.960;5.500;2022-12-29T13:08:44;99698.09;;;11.10
59339;BMP280;45117;50.960;5.500;2022-12-29T13:11:21;99696.66;;;11.05
59339;BMP280;45117;50.960;5.500;2022-12-29T13:13:59;99680.31;;;11.00
59339;BMP280;45117;50.960;5.500;2022-12-29T13:16:32;99690.72;;;10.98
59339;BMP280;45117;50.960;5.500;2022-12-29T13:19:06;99696.75;;;11.02
59339;BMP280;45117;50.960;5.500;2022-12-29T13:21:48;99695.25;;;11.01
59339;BMP280;45117;50.960;5.500;2022-12-29T13:24:23;99681.19;;;10.97
59339;BMP280;45117;50.960;5.500;2022-12-29T13:26:56;99702.66;;;10.97
59339;BMP280;45117;50.960;5.500;2022-12-29T13:29:32;99709.59;;;10.94
59339;BMP280;45117;50.960;5.500;2022-12-29T13:32:13;99689.97;;;10.97
59339;BMP280;45117;50.960;5.500;2022-12-29T13:34:47;99703.47;;;10.93
59339;BMP280;45117;50.960;5.500;2022-12-29T13:37:17;99706.69;;;10.88
59339;BMP280;45117;50.960;5.500;2022-12-29T13:39:49;99704.75;;;10.89
59339;BMP280;45117;50.960;5.500;2022-12-29T13:42:19;99710.56;;;10.87
59339;BMP280;45117;50.960;5.500;2022-12-29T13:44:48;99710.84;;;10.89
59339;BMP280;45117;50.960;5.500;2022-12-29T13:47:21;99705.19;;;10.87
59339;BMP280;45117;50.960;5.500;2022-12-29T13:49:52;99712.06;;;10.88
59339;BMP280;45117;50.960;5.500;2022-12-29T13:52:24;99713.31;;;10.84
59339;BMP280;45117;50.960;5.500;2022-12-29T13:54:58;99714.13;;;10.81
59339;BMP280;45117;50.960;5.500;2022-12-29T13:57:36;99720.03;;;10.76
59339;BMP280;45117;50.960;5.500;2022-12-29T14:00:12;99721.22;;;10.75
59339;BMP280;45117;50.960;5.500;2022-12-29T14:02:50;99729.34;;;10.71
59339;BMP280;45117;50.960;5.500;2022-12-29T14:05:28;99709.22;;;10.63
59339;BMP280;45117;50.960;5.500;2022-12-29T14:07:57;99714.50;;;10.67
59339;BMP280;45117;50.960;5.500;2022-12-29T14:10:31;99723.72;;;10.65
59339;BMP280;45117;50.960;5.500;2022-12-29T14:13:11;99732.53;;;10.66
59339;BMP280;45117;50.960;5.500;2022-12-29T14:15:43;99747.13;;;10.65
59339;BMP280;45117;50.960;5.500;2022-12-29T14:18:16;99742.69;;;10.58
59339;BMP280;45117;50.960;5.500;2022-12-29T14:20:52;99773.09;;;10.52
59339;BMP280;45117;50.960;5.500;2022-12-29T14:23:28;99755.56;;;10.31
59339;BMP280;45117;50.960;5.500;2022-12-29T14:25:58;99780.19;;;10.26
59339;BMP280;45117;50.960;5.500;2022-12-29T14:28:28;99766.09;;;10.22
59339;BMP280;45117;50.960;5.500;2022-12-29T14:30:55;99758.97;;;10.15
59339;BMP280;45117;50.960;5.500;2022-12-29T14:33:23;99758.00;;;10.05